Jack C. Davis Observatory, Carson City, Nevada Weather observations

Data are for observation ending at time listed.
 Day   Time    Ave.   Ave.  Ave.  Vector   Max.   Stn.    Total    Solar   Ave.  
  of    of     Air    Rel.  Wind   Wind    Wind   Baro.  Precip.   Rad.    Soil  
Year   Day     Temp.  Hum.  Speed  Dir.    Gust   Pres.                    Temp. 
2014   (PST)    F      %     mph   deg.    mph     mb.     in.     W/m2     F   
------------------------------------------------------------------------------
 206    6:50   65.8    38    3.3   353      8.3   848.0    0.00     322    999.0
 206    7:00   66.0    37    5.5   331      9.3   848.1    0.00     354    999.0
 206    7:10   67.0    36    5.7   314      9.5   848.1    0.00     387    999.0
 206    7:20   69.8    31    3.2   337      7.0   848.1    0.00     421    999.0
 206    7:30   71.5    25    3.6   360      8.6   848.1    0.00     454    999.0
 206    7:40   72.5    24    3.5   346      8.4   848.1    0.00     487    999.0
 206    7:50   73.5    22    3.6   352      7.7   848.1    0.00     518    999.0
 206    8:00   74.2    21    3.8   348      8.4   848.1    0.00     549    999.0
 206    8:10   75.0    20    3.5   357      8.2   848.1    0.00     580    999.0
 206    8:20   75.5    20    4.3   339      8.4   848.1    0.00     609    999.0
 206    8:30   77.0    19    3.2   339      6.3   848.0    0.00     638    999.0
 206    8:40   77.6    19    3.6   353      6.5   847.9    0.00     667    999.0
 206    8:50   76.7    20    5.5    63      9.6   848.0    0.00     693    999.0
 206    9:00   76.1    23    5.7    87      9.8   848.0    0.00     718    999.0
 206    9:10   76.5    22    4.4    96      7.5   847.9    0.00     742    999.0
 206    9:20   77.1    21    4.5   102     10.5   847.9    0.00     767    999.0
 206    9:30   77.6    21    4.0    86      8.2   847.9    0.00     792    999.0
 206    9:40   79.2    18    3.7   132      9.4   847.9    0.00     814    999.0
 206    9:50   79.8    17    4.9   124      8.5   847.9    0.00     836    999.0
 206   10:00   80.7    16    4.6   123      7.9   847.8    0.00     856    999.0
 206   10:10   80.3    16    3.8   103      9.0   847.7    0.00     875    999.0
 206   10:20   80.5    16    3.9    84      7.4   847.6    0.00     891    999.0
 206   10:30   81.2    14    4.2    86      8.5   847.6    0.00     907    999.0
 206   10:40   82.1    14    4.3   124      9.5   847.5    0.00     919    999.0
 206   10:50   82.1    14    3.8    92      9.6   847.5    0.00     930    999.0
 206   11:00   84.2    14    5.6   124     10.5   847.4    0.00     942    999.0
 206   11:10   84.2    14    3.8   115      7.8   847.3    0.00     951    999.0
 206   11:20   84.5    14    4.5    87     12.2   847.2    0.00     959    999.0
 206   11:30   83.8    14    6.1   104     14.5   847.2    0.00     965    999.0
 206   11:40   85.0    14    5.1   135      8.4   847.1    0.00     968    999.0
 206   11:50   87.0    13    3.8   130      9.3   847.1    0.00     970    999.0
 206   12:00   85.3    14    4.7    80      8.8   847.0    0.00     971    999.0
 206   12:10   85.7    14    5.6   108      9.1   847.0    0.00     970    999.0
 206   12:20   86.5    14    6.3    64     14.7   846.9    0.00     969    999.0
 206   12:30   87.2    14    8.6   273     14.7   846.9    0.00     964    999.0
 206   12:40   86.7    15    7.6   268     17.0   846.8    0.00     959    999.0
 206   12:50   86.6    16   10.7   281     17.9   846.8    0.00     954    999.0
 206   13:00   87.0    15    9.2   284     15.8   846.7    0.00     946    999.0
 206   13:10   86.9    15    9.9   268     18.7   846.7    0.00     937    999.0
 206   13:20   86.7    16   11.9   271     20.4   846.6    0.00     924    999.0
 206   13:30   86.6    17   13.1   268     24.2   846.6    0.00     912    999.0
 206   13:40   86.5    17   12.8   269     19.3   846.5    0.00     898    999.0
 206   13:50   86.8    17   12.4   261     20.3   846.5    0.00     883    999.0
 206   14:00   86.3    17   12.2   275     20.5   846.5    0.00     868    999.0
 206   14:10   86.8    17   12.5   270     19.6   846.5    0.00     851    999.0
 206   14:20   87.1    17   11.7   278     18.7   846.4    0.00     834    999.0
 206   14:30   86.5    17   13.4   292     24.6   846.4    0.00     815    999.0
 206   14:40   86.5    17   13.9   287     22.9   846.3    0.00     795    999.0
 206   14:50   86.3    17   14.0   278     21.4   846.2    0.00     773    999.0
 206   15:00   86.5    16   13.7   279     23.9   846.1    0.00     749    999.0
 206   15:10   86.4    17   13.4   268     23.1   846.1    0.00     723    999.0
 206   15:20   85.7    18   14.4   282     24.6   846.0    0.00     698    999.0
 206   15:30   85.4    18   14.9   271     22.6   846.0    0.00     671    999.0
 206   15:40   85.4    18   15.7   272     22.9   846.0    0.00     644    999.0
 206   15:50   85.5    17   15.1   264     21.5   846.0    0.00     614    999.0
 206   16:00   84.9    18   15.8   267     22.3   846.0    0.00     587    999.0
 206   16:10   84.7    18   16.5   272     28.4   845.9    0.00     554    999.0
 206   16:20   84.4    18   15.6   273     24.0   845.9    0.00     524    999.0
 206   16:30   84.6    18   15.0   274     24.2   845.8    0.00     494    999.0
 206   16:40   84.3    18   15.1   273     25.9   845.8    0.00     464    999.0
 206   16:50   83.5    19   17.3   267     25.3   845.7    0.00     435    999.0
 206   17:00   83.0    19   15.9   266     24.2   845.8    0.00     403    999.0
 206   17:10   83.1    19   15.5   263     25.9   845.8    0.00     370    999.0
 206   17:20   82.5    19   16.0   267     25.7   845.8    0.00     338    999.0
 206   17:30   82.1    19   15.6   267     25.2   845.9    0.00     303    999.0
 206   17:40   81.8    19   15.9   267     25.8   846.0    0.00     268    999.0
 206   17:50   81.3    19   16.0   266     26.4   846.0    0.00     232    999.0
 206   18:00   81.0    20   16.1   268     24.0   846.0    0.00     200    999.0
 206   18:10   80.1    21   15.6   268     23.4   846.1    0.00     147    999.0
 206   18:20   78.9    21   16.8   265     23.3   846.2    0.00      18    999.0
 206   18:30   78.6    21   16.6   269     25.0   846.2    0.00      15    999.0
 206   18:40   78.3    22   16.6   264     24.5   846.3    0.00      13    999.0
 206   18:50   77.8    23   15.7   258     26.7   846.5    0.00      12    999.0
 206   19:00   77.5    22   14.0   255     23.1   846.6    0.00       9    999.0
 206   19:10   77.7    21   12.6   250     21.0   846.7    0.00       7    999.0
 206   19:20   77.3    22   11.7   240     20.1   846.8    0.00       5    999.0
 206   19:30   76.9    22   10.5   242     19.6   846.9    0.00       2    999.0
 206   19:40   76.2    24   11.7   232     20.1   847.1    0.00       0    999.0
 206   19:50   76.0    23   12.4   237     21.0   847.3    0.00       0    999.0
 206   20:00   75.6    23   11.1   239     16.5   847.4    0.00       0    999.0
 206   20:10   75.5    23   10.8   244     16.2   847.5    0.00       0    999.0
 206   20:20   75.4    23   11.4   250     18.6   847.6    0.00       0    999.0
 206   20:30   75.2    23   10.0   248     21.2   847.8    0.00       0    999.0
 206   20:40   75.2    22    9.6   247     16.8   847.9    0.00       0    999.0
 206   20:50   75.0    22    9.8   248     15.5   848.0    0.00       0    999.0
 206   21:00   74.6    23    6.9   238     11.4   848.1    0.00       0    999.0
 206   21:10   74.1    22    5.1   234     10.9   848.1    0.00       0    999.0
 206   21:20   73.7    23    3.5   127      5.9   848.3    0.00       0    999.0
 206   21:30   72.8    26    3.8   234      4.7   848.3    0.00       0    999.0
 206   21:40   72.2    24    5.5   247      7.1   848.3    0.00       0    999.0
 206   21:50   72.5    24    4.8   272      8.7   848.3    0.00       0    999.0
 206   22:00   72.4    24    4.7   241     12.0   848.4    0.00       0    999.0
 206   22:10   70.2    26    3.2   158      6.4   848.5    0.00       0    999.0
 206   22:20   70.2    26    4.0   280      6.3   848.6    0.00       0    999.0
 206   22:30   68.9    26    4.5   291      6.8   848.7    0.00       0    999.0
 206   22:40   70.0    26    5.8   311      8.2   848.8    0.00       0    999.0
 206   22:50   71.2    26    5.8   311      8.2   848.9    0.00       0    999.0
 206   23:00   71.0    26    5.2   309      9.5   848.9    0.00       0    999.0
 206   23:10   70.3    26    3.0   291      5.5   848.9    0.00       0    999.0
 206   23:20   68.9    26    5.3   276      8.4   848.9    0.00       0    999.0
 206   23:30   69.9    27    6.3   304      9.8   848.9    0.00       0    999.0
 206   23:40   69.2    28    4.7   302      8.3   849.0    0.00       0    999.0
 206   23:50   68.8    28    6.6   304     11.3   849.0    0.00       0    999.0
 207    0:00   68.5    30    7.8   307     11.5   849.0    0.00       0    999.0
 207    0:10   68.2    30    7.7   308     12.3   849.0    0.00       0    999.0
 207    0:20   69.0    28    6.6   293     11.9   849.0    0.00       0    999.0
 207    0:30   68.4    28    4.8   287      7.9   849.0    0.00       0    999.0
 207    0:40   66.7    30    4.9   295      9.5   849.0    0.00       0    999.0
 207    0:50   66.1    31    4.5   309      8.7   849.1    0.00       0    999.0
 207    1:00   65.3    32    3.5   318      6.0   849.1    0.00       0    999.0
 207    1:10   65.6    31    4.8   308      8.2   849.1    0.00       0    999.0
 207    1:20   63.1    33    5.4   291      8.7   849.1    0.00       0    999.0
 207    1:30   63.2    37    5.8   318      9.0   849.2    0.00       0    999.0
 207    1:40   62.1    33    4.1   295      6.3   849.1    0.00       0    999.0
 207    1:50   61.1    32    4.6   292      6.3   849.1    0.00       0    999.0
 207    2:00   61.3    33    5.1   282      7.6   849.0    0.00       0    999.0
 207    2:10   60.9    31    5.9   278      7.9   849.1    0.00       0    999.0
 207    2:20   60.9    30    5.4   282      7.2   849.1    0.00       0    999.0
 207    2:30   61.0    30    5.2   272      7.3   849.1    0.00       0    999.0
 207    2:40   59.7    33    6.0   269      7.9   849.1    0.00       0    999.0
 207    2:50   59.8    33    4.8   275      7.7   849.2    0.00       0    999.0
 207    3:00   59.3    36    3.4   286      5.4   849.2    0.00       0    999.0
 207    3:10   58.8    36    4.6   274      6.3   849.3    0.00       0    999.0
 207    3:20   58.1    37    5.4   266      6.5   849.4    0.00       0    999.0
 207    3:30   58.2    37    5.1   274      7.1   849.4    0.00       0    999.0
 207    3:40   57.5    37    5.1   270      6.6   849.5    0.00       0    999.0
 207    3:50   57.7    36    4.3   272      5.2   849.5    0.00       0    999.0
 207    4:00   57.8    36    5.9   265      7.0   849.5    0.00       0    999.0
 207    4:10   57.0    41    5.1   280      7.6   849.5    0.00       0    999.0
 207    4:20   56.9    39    6.2   271      9.2   849.5    0.00       0    999.0
 207    4:30   57.3    36    7.0   266      8.4   849.5    0.00       0    999.0
 207    4:40   57.4    35    7.8   267      9.4   849.5    0.00       0    999.0
 207    4:50   57.0    35    6.2   272      7.8   849.4    0.00       2    999.0
 207    5:00   57.9    35    4.7   277      7.9   849.5    0.00       5    999.0
 207    5:10   58.3    36    4.1   280      5.4   849.5    0.00      14    999.0
 207    5:20   58.6    37    2.5   324      4.4   849.7    0.00      35    999.0
 207    5:30   59.5    36    2.5   322      4.1   849.8    0.00      63    999.0
 207    5:40   59.7    36    3.5   305      4.9   849.8    0.00      61    999.0
 207    5:50   58.8    39    3.3   294      4.7   849.9    0.00      27    999.0
 207    6:00   58.2    43    4.4   273      6.5   850.0    0.00      32    999.0
 207    6:10   57.5    45    3.0   306      5.6   850.1    0.00      35    999.0
 207    6:20   57.8    44    2.5   319      4.3   850.2    0.00      47    999.0
 207    6:30   59.1    42    1.6    49      3.5   850.4    0.00      78    999.0
 207    6:40   59.2    42    0.8   353      1.9   850.5    0.00      68    999.0

Return to Yerington, Nevada graphs page.


Western Regional Climate Center,wrcc@dri.edu